Hazelton, Canada
Current Conditions -  °F | °C
As of 3:00 AM on Monday 20 Oct 2014 (Local Time) from CYYD Reporting Station
Scattered Clouds Scattered Clouds  
Wind Chill: 40°   Ceiling: Unl
Heat Index: 45°   Visibility: 9mi
Dew Point: 41°   Wind: 9mph
Humidity: 87%   Direction: 140°SE
Pressure: 29.44"   Gusts: NA
Location:  55.25°N, 127.67°W
Report Text: CYYD 201000Z AUTO 14008KT 9SM SCT070 07/05 A2944 RMK SLP975
Loading
Personal Weather Stations






























Interactive Weather Map
Tropical Storm Tracking
New forecast layout! Learn more

10-Day Weather Forecast

Advertisements
Track Severe Weather on mobile